モンテレー の空港の天気 - METARとTAF

ヘネラル・マリアノ・エソコベド国際空港 ( MMMY / MTY ) - メキシコ ヌエボ・レオン州モンテレー
飛行場実況気象(Metar)
観測時間02/17 16:41 CST (02/17 22:41 UTC)
風向・風速東南東 7m/s
視程10km以上
天気現象
全天の4割程度の雲 雲底高度 610m
気温26℃
湿度58%
気圧1007hPa
METARMMMY 172241Z 12014KT 7SM SCT020 26/17 A2974 RMK 8/500 HZY
過去の天気等 Google飛行場航空写真 Wunderground天気予報

過去48時間のMETAR

飛行場予報(TAF)
発表時間: 2/17 15:27 CST (2/17 21:27 UTC)
予報対象時間: 17日15時 CST ~ 18日18時 CST
風向・風速北東 5m/s 瞬間風速 10m/s
視程10km以上
全天の4割程度の雲 雲底高度 300m
17日18時 CST から
風向・風速北東 6m/s
視程10km以上
全天の4割程度の雲 雲底高度 6100m
18日0時 CST から
風向・風速東北東 4m/s
視程10km以上
全天の8割程度の雲 雲底高度 6100m
18日6時 CST から
風向・風速東南東 3m/s
視程10km以上
全天の8割程度の雲 雲底高度 610m
18日6時 CST から 確率 40% で
視程4830m
天気現象もや
全天の8割程度の雲 雲底高度 460m
18日12時 CST から
風向・風速東南東 5m/s
視程10km以上
全天の8割程度の雲 雲底高度 760m
TAF AMD MMMY 172127Z 1721/1824 04010G20KT P6SM SCT010 TX29/1821Z TN17/1812Z
FM180000 04012KT P6SM SCT200
FM180600 07008KT P6SM BKN200
FM181200 12005KT P6SM BKN020
PROB40 1812/1816 3SM BR BKN015
FM181800 12010KT P6SM BKN025